createdAt,value
2019-02-05T00:01:55.114Z,6.50
2019-02-05T00:04:22.382Z,10.63
2019-02-05T00:06:49.634Z,7.47
2019-02-05T00:09:16.902Z,11.83
2019-02-05T00:11:44.237Z,9.27
2019-02-05T00:14:11.546Z,6.37
2019-02-05T00:16:39.198Z,8.80
2019-02-05T00:19:06.453Z,11.27
2019-02-05T00:21:34.045Z,9.00
2019-02-05T00:24:01.645Z,7.97
2019-02-05T00:26:29.220Z,8.30
2019-02-05T00:28:56.465Z,7.40
2019-02-05T00:31:23.733Z,8.20
2019-02-05T00:33:51.282Z,8.43
2019-02-05T00:36:18.614Z,9.63
2019-02-05T00:38:45.892Z,9.57
2019-02-05T00:41:13.308Z,7.90
2019-02-05T00:43:40.540Z,8.37
2019-02-05T00:46:07.812Z,8.37
2019-02-05T00:48:35.330Z,7.80
2019-02-05T00:51:03.221Z,9.57
2019-02-05T00:53:30.469Z,8.03
2019-02-05T00:55:57.741Z,7.27
2019-02-05T00:58:25.269Z,7.33
2019-02-05T01:00:52.520Z,7.37
2019-02-05T01:03:19.926Z,8.70
2019-02-05T01:05:47.431Z,7.40
2019-02-05T01:08:14.707Z,10.20
2019-02-05T01:10:42.017Z,11.20
2019-02-05T01:13:09.285Z,9.93
2019-02-05T01:15:36.565Z,10.50
2019-02-05T01:18:04.108Z,8.30
2019-02-05T01:20:31.350Z,9.43
2019-02-05T01:22:58.628Z,10.83
2019-02-05T01:25:26.193Z,9.10
2019-02-05T01:27:53.542Z,8.73
2019-02-05T01:30:21.856Z,9.27
2019-02-05T01:32:49.120Z,8.97
2019-02-05T01:35:16.389Z,9.53
2019-02-05T01:37:43.626Z,9.33
2019-02-05T01:40:12.670Z,10.43
2019-02-05T01:42:40.214Z,8.80
2019-02-05T01:45:09.026Z,8.43
2019-02-05T01:47:36.534Z,6.60
2019-02-05T01:50:05.274Z,7.97
2019-02-05T01:52:32.546Z,9.33
2019-02-05T01:54:59.802Z,7.73
2019-02-05T01:57:27.049Z,10.83
2019-02-05T01:59:54.892Z,10.07
2019-02-05T02:02:22.214Z,9.37
2019-02-05T02:04:49.463Z,9.03
2019-02-05T02:07:16.733Z,9.47
2019-02-05T02:09:43.978Z,9.90
2019-02-05T02:12:11.265Z,10.50
2019-02-05T02:14:38.521Z,11.27
2019-02-05T02:17:05.762Z,11.07
2019-02-05T02:19:33.608Z,8.63
2019-02-05T02:22:01.182Z,8.13
2019-02-05T02:24:28.453Z,8.57
2019-02-05T02:26:55.701Z,6.80
2019-02-05T02:29:23.234Z,9.20
2019-02-05T02:31:50.479Z,9.43
2019-02-05T02:34:17.750Z,8.50
2019-02-05T02:36:45.298Z,9.40
2019-02-05T02:39:12.819Z,7.00
2019-02-05T02:41:40.336Z,9.00
2019-02-05T02:44:07.689Z,11.60
2019-02-05T02:46:35.041Z,9.27
2019-02-05T02:49:02.458Z,11.03
2019-02-05T02:51:29.731Z,10.50
2019-02-05T02:53:57.156Z,9.50
2019-02-05T02:56:24.511Z,8.23
2019-02-05T02:58:51.832Z,8.80
2019-02-05T03:01:19.150Z,8.43
2019-02-05T03:03:46.445Z,9.17
2019-02-05T03:06:13.821Z,8.90
2019-02-05T03:08:41.122Z,8.60
2019-02-05T03:11:08.406Z,7.73
2019-02-05T03:13:35.823Z,10.23
2019-02-05T03:16:03.161Z,8.60
2019-02-05T03:18:30.407Z,8.40
2019-02-05T03:20:57.756Z,10.83
2019-02-05T03:23:25.109Z,8.13
2019-02-05T03:25:52.514Z,7.90
2019-02-05T03:28:19.829Z,9.40
2019-02-05T03:30:47.181Z,8.37
2019-02-05T03:33:14.509Z,7.80
2019-02-05T03:35:41.850Z,8.40
2019-02-05T03:38:09.096Z,7.67
2019-02-05T03:40:37.907Z,8.47
2019-02-05T03:43:05.150Z,8.07
2019-02-05T03:45:32.607Z,10.10
2019-02-05T03:48:03.797Z,8.23
2019-02-05T03:50:32.654Z,6.93
2019-02-05T03:53:04.511Z,6.27
2019-02-05T03:55:36.345Z,5.93
2019-02-05T03:58:05.137Z,6.80
2019-02-05T04:00:43.037Z,8.23
2019-02-05T04:03:17.890Z,7.87
2019-02-05T04:05:47.043Z,7.90
2019-02-05T04:08:18.547Z,8.10
2019-02-05T04:10:56.219Z,7.27
2019-02-05T04:13:27.987Z,7.63
2019-02-05T04:15:59.703Z,9.50
2019-02-05T04:18:28.738Z,7.90
2019-02-05T04:21:12.650Z,6.20
2019-02-05T04:23:44.550Z,8.47
2019-02-05T04:26:13.611Z,6.70
2019-02-05T04:28:48.450Z,7.50
2019-02-05T04:31:35.070Z,6.73
2019-02-05T04:34:18.962Z,7.30
2019-02-05T04:36:57.542Z,8.93
2019-02-05T04:39:29.299Z,7.70
2019-02-05T04:42:10.215Z,8.20
2019-02-05T04:44:38.990Z,6.83
2019-02-05T04:47:10.770Z,6.80
2019-02-05T04:49:45.539Z,7.93
2019-02-05T04:52:23.407Z,6.30
2019-02-05T04:55:01.198Z,6.53
2019-02-05T04:57:30.401Z,6.33
2019-02-05T05:00:01.975Z,6.90
2019-02-05T05:02:33.688Z,8.17
2019-02-05T05:05:02.492Z,9.90
2019-02-05T05:07:43.360Z,10.17
2019-02-05T05:10:10.746Z,7.03
2019-02-05T05:12:38.525Z,7.07
2019-02-05T05:15:07.790Z,8.20
2019-02-05T05:17:35.537Z,13.00
2019-02-05T05:20:02.852Z,8.50
2019-02-05T05:22:30.119Z,6.83
2019-02-05T05:24:58.333Z,7.33
2019-02-05T05:27:26.075Z,9.50
2019-02-05T05:29:53.371Z,7.13
2019-02-05T05:32:20.786Z,10.50
2019-02-05T05:34:48.035Z,7.17
2019-02-05T05:37:14.852Z,10.07
2019-02-05T05:39:42.344Z,9.10
2019-02-05T05:42:09.866Z,7.10
2019-02-05T05:44:37.138Z,8.33
2019-02-05T05:47:04.783Z,7.60
2019-02-05T05:49:32.063Z,6.95
2019-02-05T05:51:59.306Z,6.37
2019-02-05T05:54:26.573Z,7.20
2019-02-05T05:56:53.896Z,9.30
2019-02-05T05:59:21.313Z,7.80
2019-02-05T06:01:48.585Z,7.20
2019-02-05T06:04:15.831Z,7.70
2019-02-05T06:06:43.651Z,7.90
2019-02-05T06:09:10.996Z,6.13
2019-02-05T06:11:38.524Z,10.67
2019-02-05T06:14:05.840Z,6.13
2019-02-05T06:16:33.177Z,7.70
2019-02-05T06:19:00.423Z,8.70
2019-02-05T06:21:27.705Z,7.67
2019-02-05T06:23:55.081Z,7.07
2019-02-05T06:26:22.503Z,7.23
2019-02-05T06:28:49.824Z,7.93
2019-02-05T06:31:17.163Z,7.00
2019-02-05T06:33:44.436Z,6.10
2019-02-05T06:36:11.941Z,7.80
2019-02-05T06:38:39.367Z,8.17
2019-02-05T06:41:06.743Z,15.30
2019-02-05T06:43:34.013Z,8.20
2019-02-05T06:46:01.258Z,7.30
2019-02-05T06:48:28.791Z,8.80
2019-02-05T06:50:56.923Z,9.30
2019-02-05T06:53:24.514Z,11.33
2019-02-05T06:55:51.794Z,8.13
2019-02-05T06:58:19.042Z,7.20
2019-02-05T07:00:46.373Z,9.43
2019-02-05T07:03:14.097Z,11.93
2019-02-05T07:05:41.448Z,7.83
2019-02-05T07:08:08.764Z,7.83
2019-02-05T07:10:36.101Z,8.03
2019-02-05T07:13:03.365Z,8.10
2019-02-05T07:15:30.717Z,8.07
2019-02-05T07:17:58.054Z,8.13
2019-02-05T07:20:25.325Z,9.43
2019-02-05T07:22:55.633Z,9.47
2019-02-05T07:25:22.122Z,10.93
2019-02-05T07:27:49.636Z,10.97
2019-02-05T07:30:24.726Z,12.40
2019-02-05T07:32:52.082Z,7.47
2019-02-05T07:35:19.512Z,15.80
2019-02-05T07:37:47.091Z,9.73
2019-02-05T07:40:18.624Z,9.60
2019-02-05T07:42:45.982Z,10.30
2019-02-05T07:45:14.989Z,8.53
2019-02-05T07:47:42.566Z,12.50
2019-02-05T07:50:11.472Z,9.27
2019-02-05T07:52:38.822Z,11.23
2019-02-05T07:55:08.192Z,12.03
2019-02-05T07:57:35.544Z,11.50
2019-02-05T08:00:03.135Z,10.50
2019-02-05T08:02:30.408Z,13.73
2019-02-05T08:05:00.614Z,13.53
2019-02-05T08:07:26.775Z,9.60
2019-02-05T08:09:54.334Z,11.87
2019-02-05T08:12:21.682Z,10.60
2019-02-05T08:14:49.005Z,10.63
2019-02-05T08:17:16.526Z,11.00
2019-02-05T08:19:44.137Z,13.33
2019-02-05T08:22:11.838Z,11.80
2019-02-05T08:24:39.082Z,11.50
2019-02-05T08:27:06.369Z,12.67
2019-02-05T08:29:33.683Z,12.03
2019-02-05T08:32:01.183Z,11.27
2019-02-05T08:34:28.786Z,13.70
2019-02-05T08:36:56.311Z,14.90
2019-02-05T08:39:23.665Z,12.37
2019-02-05T08:41:51.287Z,14.03
2019-02-05T08:44:18.635Z,14.27
2019-02-05T08:46:45.992Z,13.30
2019-02-05T08:49:13.572Z,13.03
2019-02-05T08:51:40.917Z,13.43
2019-02-05T08:54:08.161Z,12.20
2019-02-05T08:56:35.442Z,13.73
2019-02-05T08:59:02.787Z,12.10
2019-02-05T09:01:30.150Z,11.10
2019-02-05T09:03:57.594Z,12.70
2019-02-05T09:06:24.918Z,14.50
2019-02-05T09:08:52.350Z,12.20
2019-02-05T09:11:19.597Z,11.43
2019-02-05T09:13:46.959Z,14.23
2019-02-05T09:16:14.248Z,12.23
2019-02-05T09:18:41.574Z,10.43
2019-02-05T09:21:08.926Z,9.60
2019-02-05T09:23:36.610Z,11.07
2019-02-05T09:26:04.007Z,10.70
2019-02-05T09:28:31.529Z,10.13
2019-02-05T09:30:58.851Z,9.47
2019-02-05T09:33:26.457Z,14.30
2019-02-05T09:35:53.951Z,9.73
2019-02-05T09:38:21.294Z,9.40
2019-02-05T09:40:48.688Z,10.20
2019-02-05T09:43:16.397Z,9.37
2019-02-05T09:45:44.004Z,9.20
2019-02-05T09:48:11.354Z,10.63
2019-02-05T09:50:44.734Z,9.00
2019-02-05T09:53:07.915Z,8.73
2019-02-05T09:55:36.202Z,10.57
2019-02-05T09:58:04.082Z,9.73
2019-02-05T10:00:32.965Z,9.60
2019-02-05T10:03:00.509Z,10.57
2019-02-05T10:05:29.270Z,8.93
2019-02-05T10:07:56.874Z,8.13
2019-02-05T10:10:24.120Z,8.10
2019-02-05T10:12:51.563Z,8.60
2019-02-05T10:15:23.153Z,10.10
2019-02-05T10:17:50.663Z,8.43
2019-02-05T10:20:18.637Z,11.93
2019-02-05T10:22:46.586Z,9.47
2019-02-05T10:25:14.083Z,10.17
2019-02-05T10:27:41.448Z,8.50
2019-02-05T10:30:10.234Z,8.63
2019-02-05T10:32:37.799Z,8.70
2019-02-05T10:35:06.449Z,7.77
2019-02-05T10:37:33.966Z,7.40
2019-02-05T10:40:01.248Z,10.33
2019-02-05T10:42:28.570Z,10.83
2019-02-05T10:44:55.846Z,9.10
2019-02-05T10:47:23.165Z,9.53
2019-02-05T10:49:50.440Z,9.20
2019-02-05T10:52:17.686Z,11.07
2019-02-05T10:54:45.038Z,8.90
2019-02-05T10:57:12.305Z,7.97
2019-02-05T10:59:40.030Z,9.10
2019-02-05T11:02:07.994Z,7.63
2019-02-05T11:04:35.574Z,12.23
2019-02-05T11:07:03.108Z,9.67
2019-02-05T11:09:30.679Z,8.60
2019-02-05T11:11:57.949Z,10.60
2019-02-05T11:14:25.311Z,9.33
2019-02-05T11:16:52.633Z,11.37
2019-02-05T11:19:20.173Z,10.50
2019-02-05T11:21:47.449Z,12.63
2019-02-05T11:24:14.706Z,11.70
2019-02-05T11:26:42.206Z,12.37
2019-02-05T11:29:09.528Z,13.93
2019-02-05T11:31:36.873Z,12.03
2019-02-05T11:34:04.493Z,12.37
2019-02-05T11:36:32.102Z,12.70
2019-02-05T11:38:59.558Z,12.20
2019-02-05T11:41:27.427Z,13.83
2019-02-05T11:43:54.776Z,14.87
2019-02-05T11:46:22.022Z,12.83
2019-02-05T11:48:49.306Z,11.93
2019-02-05T11:51:16.558Z,12.70
2019-02-05T11:53:43.916Z,10.93
2019-02-05T11:56:11.266Z,16.00
2019-02-05T11:58:38.887Z,11.90
2019-02-05T12:01:07.778Z,15.50
2019-02-05T12:03:35.120Z,13.03
2019-02-05T12:06:02.733Z,15.03
2019-02-05T12:08:30.306Z,10.87
2019-02-05T12:10:57.590Z,13.43
2019-02-05T12:13:24.850Z,12.90
2019-02-05T12:15:52.278Z,12.60
2019-02-05T12:18:19.873Z,11.30
2019-02-05T12:20:47.230Z,11.57
2019-02-05T12:23:14.733Z,12.97
2019-02-05T12:25:42.334Z,10.70
2019-02-05T12:28:09.919Z,12.90
2019-02-05T12:30:45.182Z,9.17
2019-02-05T12:33:07.754Z,9.50
2019-02-05T12:35:35.170Z,9.63
2019-02-05T12:38:02.869Z,10.93
2019-02-05T12:40:30.478Z,10.03
2019-02-05T12:42:57.803Z,13.77
2019-02-05T12:45:26.660Z,10.27
2019-02-05T12:47:54.088Z,12.47
2019-02-05T12:50:22.792Z,11.60
2019-02-05T12:52:50.146Z,11.83
2019-02-05T12:55:17.488Z,14.70
2019-02-05T12:57:44.733Z,13.77
2019-02-05T13:00:17.246Z,14.83
2019-02-05T13:02:44.579Z,11.20
2019-02-05T13:05:11.987Z,12.87
2019-02-05T13:07:39.412Z,18.13
2019-02-05T13:10:08.233Z,14.33
2019-02-05T13:12:36.102Z,14.03
2019-02-05T13:15:05.421Z,12.60
2019-02-05T13:17:32.677Z,11.17
2019-02-05T13:19:59.955Z,12.50
2019-02-05T13:22:27.468Z,12.33
2019-02-05T13:24:54.737Z,12.43
2019-02-05T13:27:21.981Z,11.73
2019-02-05T13:29:49.641Z,13.60
2019-02-05T13:32:17.345Z,12.80
2019-02-05T13:34:44.737Z,13.83
2019-02-05T13:37:12.009Z,11.00
2019-02-05T13:39:39.293Z,11.93
2019-02-05T13:42:06.791Z,16.60
2019-02-05T13:44:34.034Z,11.13
2019-02-05T13:47:01.478Z,12.80
2019-02-05T13:49:29.054Z,11.53
2019-02-05T13:51:56.300Z,9.40
2019-02-05T13:54:23.581Z,10.20
2019-02-05T13:56:51.092Z,11.50
2019-02-05T13:59:18.435Z,8.97
2019-02-05T14:01:45.774Z,8.67
2019-02-05T14:04:13.439Z,9.20
2019-02-05T14:06:40.686Z,8.70
2019-02-05T14:09:10.881Z,15.50
2019-02-05T14:11:38.314Z,11.83
2019-02-05T14:14:05.863Z,10.57
2019-02-05T14:16:33.218Z,13.77
2019-02-05T14:19:00.467Z,11.50
2019-02-05T14:21:27.737Z,11.10
2019-02-05T14:23:55.266Z,11.73
2019-02-05T14:26:22.764Z,10.50
2019-02-05T14:28:50.303Z,10.33
2019-02-05T14:31:17.575Z,10.83
2019-02-05T14:33:44.842Z,12.53
2019-02-05T14:36:12.570Z,11.40
2019-02-05T14:38:39.824Z,11.87
2019-02-05T14:41:07.595Z,12.77
2019-02-05T14:43:34.866Z,16.00
2019-02-05T14:46:02.124Z,11.97
2019-02-05T14:48:29.472Z,10.90
2019-02-05T14:50:56.750Z,14.17
2019-02-05T14:53:24.858Z,15.17
2019-02-05T14:55:52.136Z,11.70
2019-02-05T14:58:19.686Z,13.07
2019-02-05T15:00:47.253Z,13.90
2019-02-05T15:03:14.761Z,18.33
2019-02-05T15:05:42.609Z,14.20
2019-02-05T15:08:10.239Z,13.57
2019-02-05T15:10:37.591Z,13.13
2019-02-05T15:13:05.206Z,13.13
2019-02-05T15:15:32.854Z,14.33
2019-02-05T15:18:00.212Z,11.93
2019-02-05T15:20:31.732Z,13.30
2019-02-05T15:22:59.006Z,11.93
2019-02-05T15:25:26.388Z,12.60
2019-02-05T15:27:53.705Z,13.50
2019-02-05T15:30:22.490Z,13.00
2019-02-05T15:32:51.414Z,15.53
2019-02-05T15:35:18.742Z,12.40
2019-02-05T15:37:46.065Z,11.30
2019-02-05T15:40:15.166Z,13.07
2019-02-05T15:42:42.419Z,12.87
2019-02-05T15:45:11.041Z,13.90
2019-02-05T15:47:38.667Z,12.80
2019-02-05T15:50:07.415Z,13.63
2019-02-05T15:52:34.743Z,13.17
2019-02-05T15:55:02.095Z,16.60
2019-02-05T15:57:29.609Z,13.20
2019-02-05T15:59:56.950Z,18.50
2019-02-05T16:02:24.189Z,13.63
2019-02-05T16:04:52.098Z,15.07
2019-02-05T16:07:19.417Z,15.90
2019-02-05T16:09:46.974Z,14.10
2019-02-05T16:12:14.227Z,17.40
2019-02-05T16:14:41.549Z,11.60
2019-02-05T16:17:09.072Z,14.63
2019-02-05T16:19:36.615Z,10.13
2019-02-05T16:22:04.066Z,12.30
2019-02-05T16:24:31.345Z,11.87
2019-02-05T16:26:59.046Z,11.47
2019-02-05T16:29:26.363Z,14.00
2019-02-05T16:31:53.723Z,12.30
2019-02-05T16:34:20.970Z,19.93
2019-02-05T16:36:48.811Z,11.37
2019-02-05T16:39:16.101Z,15.73
2019-02-05T16:41:43.624Z,9.17
2019-02-05T16:44:10.976Z,13.43
2019-02-05T16:46:38.469Z,10.63
2019-02-05T16:49:05.750Z,13.10
2019-02-05T16:51:33.082Z,11.97
2019-02-05T16:54:00.366Z,12.40
2019-02-05T16:56:27.613Z,9.27
2019-02-05T16:58:55.237Z,13.73
2019-02-05T17:01:22.514Z,13.10
2019-02-05T17:03:49.788Z,13.57
2019-02-05T17:06:17.057Z,12.57
2019-02-05T17:08:44.583Z,12.53
2019-02-05T17:11:11.825Z,11.10
2019-02-05T17:13:39.105Z,13.17
2019-02-05T17:16:06.370Z,9.90
2019-02-05T17:18:33.870Z,11.43
2019-02-05T17:21:01.395Z,12.63
2019-02-05T17:23:28.914Z,13.93
2019-02-05T17:25:56.162Z,12.03
2019-02-05T17:28:23.469Z,10.90
2019-02-05T17:30:50.715Z,10.20
2019-02-05T17:33:18.040Z,13.23
2019-02-05T17:35:46.035Z,11.13
2019-02-05T17:38:13.719Z,9.60
2019-02-05T17:40:41.131Z,11.90
2019-02-05T17:43:08.816Z,10.20
2019-02-05T17:45:37.136Z,10.03
2019-02-05T17:48:08.580Z,12.20
2019-02-05T17:50:35.970Z,11.93
2019-02-05T17:53:03.539Z,11.03
2019-02-05T17:55:30.951Z,11.40
2019-02-05T17:57:58.205Z,12.50
2019-02-05T18:00:28.010Z,14.17
2019-02-05T18:02:55.426Z,11.30
2019-02-05T18:05:22.794Z,10.30
2019-02-05T18:07:50.368Z,12.13
2019-02-05T18:10:21.991Z,14.80
2019-02-05T18:12:49.421Z,11.07
2019-02-05T18:15:27.233Z,12.50
2019-02-05T18:17:54.570Z,15.43
2019-02-05T18:20:21.922Z,13.57
2019-02-05T18:22:49.803Z,11.33
2019-02-05T18:25:18.073Z,10.40
2019-02-05T18:27:45.328Z,15.30
2019-02-05T18:30:14.354Z,11.00
2019-02-05T18:32:41.705Z,12.90
2019-02-05T18:35:10.032Z,11.10
2019-02-05T18:37:37.567Z,11.47
2019-02-05T18:40:07.008Z,12.00
2019-02-05T18:42:34.525Z,9.97
2019-02-05T18:45:01.779Z,12.80
2019-02-05T18:47:29.129Z,10.60
2019-02-05T18:49:56.382Z,10.90
2019-02-05T18:52:24.042Z,11.00
2019-02-05T18:54:52.039Z,11.37
2019-02-05T18:57:19.811Z,10.80
2019-02-05T18:59:47.263Z,9.63
2019-02-05T19:02:14.730Z,11.43
2019-02-05T19:04:42.264Z,10.75
2019-02-05T19:07:09.834Z,10.40
2019-02-05T19:09:37.362Z,10.80
2019-02-05T19:12:05.119Z,12.03
2019-02-05T19:14:32.767Z,9.73
2019-02-05T19:17:00.014Z,11.37
2019-02-05T19:19:27.571Z,11.50
2019-02-05T19:21:55.429Z,9.93
2019-02-05T19:24:33.323Z,12.43
2019-02-05T19:27:00.607Z,13.60
2019-02-05T19:29:27.854Z,9.93
2019-02-05T19:31:55.473Z,10.30
2019-02-05T19:34:22.765Z,9.50
2019-02-05T19:36:50.129Z,11.20
2019-02-05T19:39:17.384Z,10.63
2019-02-05T19:41:44.708Z,13.50
2019-02-05T19:44:14.510Z,13.10
2019-02-05T19:46:55.059Z,11.40
2019-02-05T19:49:24.578Z,13.77
2019-02-05T19:51:52.076Z,13.10
2019-02-05T19:54:20.162Z,12.60
2019-02-05T19:56:47.501Z,12.23
2019-02-05T19:59:15.034Z,13.60
2019-02-05T20:01:42.658Z,11.30
2019-02-05T20:04:09.900Z,14.03
2019-02-05T20:06:37.697Z,11.90
2019-02-05T20:09:06.774Z,11.43
2019-02-05T20:11:34.050Z,10.63
2019-02-05T20:14:01.387Z,11.17
2019-02-05T20:16:28.726Z,12.13
2019-02-05T20:18:56.001Z,11.47
2019-02-05T20:21:23.296Z,10.93
2019-02-05T20:23:50.544Z,13.33
2019-02-05T20:26:18.067Z,10.40
2019-02-05T20:28:45.620Z,13.33
2019-02-05T20:31:12.883Z,11.87
2019-02-05T20:33:49.733Z,17.27
2019-02-05T20:36:09.209Z,15.80
2019-02-05T20:38:36.811Z,16.90
2019-02-05T20:41:04.236Z,18.07
2019-02-05T20:43:31.662Z,16.20
2019-02-05T20:45:59.226Z,14.90
2019-02-05T20:48:29.539Z,20.23
2019-02-05T20:50:55.625Z,16.60
2019-02-05T20:53:22.886Z,16.40
2019-02-05T20:55:50.501Z,18.60
2019-02-05T20:58:17.753Z,17.10
2019-02-05T21:00:45.109Z,17.90
2019-02-05T21:03:12.366Z,19.33
2019-02-05T21:05:40.174Z,19.03
2019-02-05T21:08:07.463Z,19.40
2019-02-05T21:10:35.283Z,22.17
2019-02-05T21:13:02.571Z,18.90
2019-02-05T21:15:29.889Z,17.93
2019-02-05T21:17:57.427Z,16.67
2019-02-05T21:20:29.231Z,19.50
2019-02-05T21:22:57.030Z,14.90
2019-02-05T21:25:25.029Z,18.10
2019-02-05T21:27:52.326Z,14.37
2019-02-05T21:30:20.246Z,17.80
2019-02-05T21:32:48.059Z,17.20
2019-02-05T21:35:15.506Z,18.70
2019-02-05T21:37:42.770Z,17.20
2019-02-05T21:40:11.591Z,19.00
2019-02-05T21:42:38.914Z,19.03
2019-02-05T21:45:07.983Z,16.97
2019-02-05T21:47:35.248Z,17.80
2019-02-05T21:50:03.066Z,19.47
2019-02-05T21:52:30.354Z,17.83
2019-02-05T21:54:57.610Z,17.97
2019-02-05T21:57:25.147Z,19.73
2019-02-05T21:59:52.854Z,20.30
2019-02-05T22:02:20.236Z,19.70
2019-02-05T22:04:47.555Z,18.03
2019-02-05T22:07:14.901Z,23.03
2019-02-05T22:09:42.220Z,21.63
2019-02-05T22:12:09.578Z,25.43
2019-02-05T22:14:36.934Z,22.73
2019-02-05T22:17:04.912Z,18.67
2019-02-05T22:19:32.275Z,16.30
2019-02-05T22:21:59.618Z,18.63
2019-02-05T22:24:26.875Z,24.10
2019-02-05T22:26:54.482Z,20.73
2019-02-05T22:29:21.743Z,24.77
2019-02-05T22:31:49.344Z,27.73
2019-02-05T22:34:17.097Z,21.33
2019-02-05T22:36:44.670Z,19.80
2019-02-05T22:39:12.411Z,16.70
2019-02-05T22:41:39.735Z,21.17
2019-02-05T22:44:07.516Z,18.77
2019-02-05T22:46:35.029Z,18.73
2019-02-05T22:49:02.384Z,18.70
2019-02-05T22:51:30.145Z,26.10
2019-02-05T22:53:57.446Z,18.57
2019-02-05T22:56:24.741Z,21.53
2019-02-05T22:58:52.287Z,17.87
2019-02-05T23:01:23.738Z,15.10
2019-02-05T23:03:52.545Z,19.40
2019-02-05T23:06:30.120Z,19.07
2019-02-05T23:08:59.739Z,15.83
2019-02-05T23:11:40.424Z,17.73
2019-02-05T23:14:07.758Z,16.27
2019-02-05T23:16:35.052Z,14.97
2019-02-05T23:19:02.504Z,14.33
2019-02-05T23:21:29.781Z,13.83
2019-02-05T23:23:57.662Z,16.70
2019-02-05T23:26:25.182Z,15.47
2019-02-05T23:28:52.435Z,11.00
2019-02-05T23:31:19.719Z,13.93
2019-02-05T23:33:47.238Z,15.50
2019-02-05T23:36:14.490Z,27.60
2019-02-05T23:38:42.350Z,13.77
2019-02-05T23:41:10.021Z,16.77
2019-02-05T23:43:37.272Z,14.80
2019-02-05T23:46:04.618Z,16.80
2019-02-05T23:48:31.941Z,17.70
2019-02-05T23:50:59.466Z,17.03
2019-02-05T23:53:26.742Z,17.30
2019-02-05T23:55:54.265Z,18.80
2019-02-05T23:58:21.706Z,19.27
